createdAt,value
2022-09-21T00:00:54.693Z,99.99
2022-09-21T00:01:54.929Z,99.99
2022-09-21T00:02:54.977Z,99.99
2022-09-21T00:03:55.531Z,99.99
2022-09-21T00:04:55.414Z,99.99
2022-09-21T00:05:55.537Z,99.99
2022-09-21T00:06:55.686Z,99.99
2022-09-21T00:07:55.824Z,99.99
2022-09-21T00:08:55.974Z,99.99
2022-09-21T00:09:56.100Z,99.99
2022-09-21T00:10:56.226Z,99.99
2022-09-21T00:11:58.289Z,99.99
2022-09-21T00:12:58.016Z,99.99
2022-09-21T00:13:56.642Z,99.99
2022-09-21T00:14:56.766Z,99.99
2022-09-21T00:15:56.898Z,99.99
2022-09-21T00:16:57.058Z,99.99
2022-09-21T00:17:57.201Z,99.99
2022-09-21T00:18:57.519Z,99.99
2022-09-21T00:19:58.538Z,99.99
2022-09-21T00:20:57.783Z,99.99
2022-09-21T00:21:57.951Z,99.30
2022-09-21T00:22:59.021Z,99.65
2022-09-21T00:23:58.257Z,99.34
2022-09-21T00:24:58.397Z,99.99
2022-09-21T00:25:58.543Z,99.55
2022-09-21T00:26:58.668Z,99.76
2022-09-21T00:27:58.786Z,99.99
2022-09-21T00:28:58.922Z,99.99
2022-09-21T00:29:59.061Z,99.99
2022-09-21T00:30:59.238Z,99.99
2022-09-21T00:31:59.391Z,99.99
2022-09-21T00:33:00.524Z,99.99
2022-09-21T00:34:00.060Z,99.99
2022-09-21T00:34:59.991Z,99.99
2022-09-21T00:36:00.158Z,99.99
2022-09-21T00:37:01.023Z,99.99
2022-09-21T00:38:00.511Z,99.99
2022-09-21T00:39:00.662Z,99.99
2022-09-21T00:40:00.852Z,99.99
2022-09-21T00:41:00.941Z,99.99
2022-09-21T00:42:02.085Z,99.99
2022-09-21T00:43:01.309Z,99.99
2022-09-21T00:44:01.457Z,99.99
2022-09-21T00:45:01.571Z,99.99
2022-09-21T00:46:01.733Z,99.99
2022-09-21T00:47:01.888Z,99.99
2022-09-21T00:48:02.023Z,99.99
2022-09-21T00:49:02.211Z,99.99
2022-09-21T00:50:02.343Z,99.99
2022-09-21T00:51:02.499Z,99.99
2022-09-21T00:52:02.664Z,99.99
2022-09-21T00:53:02.826Z,99.99
2022-09-21T00:54:03.023Z,99.99
2022-09-21T00:55:04.030Z,99.99
2022-09-21T00:56:03.268Z,99.99
2022-09-21T00:57:03.443Z,99.99
2022-09-21T00:58:03.575Z,99.99
2022-09-21T00:59:03.754Z,99.99
2022-09-21T01:00:03.900Z,99.99
2022-09-21T01:01:04.101Z,99.99
2022-09-21T01:02:05.078Z,99.99
2022-09-21T01:03:04.475Z,99.99
2022-09-21T01:04:05.640Z,99.99
2022-09-21T01:05:04.762Z,99.99
2022-09-21T01:06:04.949Z,99.99
2022-09-21T01:07:05.126Z,99.99
2022-09-21T01:08:05.284Z,99.99
2022-09-21T01:09:06.031Z,99.99
2022-09-21T01:10:05.679Z,99.99
2022-09-21T01:11:05.840Z,99.99
2022-09-21T01:12:06.014Z,99.99
2022-09-21T01:13:06.165Z,99.99
2022-09-21T01:14:07.896Z,99.99
2022-09-21T01:15:07.521Z,99.99
2022-09-21T01:16:06.789Z,99.99
2022-09-21T01:17:06.976Z,99.99
2022-09-21T01:18:07.111Z,99.99
2022-09-21T01:19:07.240Z,99.99
2022-09-21T01:20:08.033Z,99.99
2022-09-21T01:21:07.530Z,99.99
2022-09-21T01:22:07.692Z,99.99
2022-09-21T01:23:07.860Z,99.99
2022-09-21T01:24:08.542Z,99.99
2022-09-21T01:25:08.158Z,99.99
2022-09-21T01:26:08.322Z,99.99
2022-09-21T01:27:08.474Z,99.99
2022-09-21T01:28:09.070Z,99.99
2022-09-21T01:29:08.863Z,99.99
2022-09-21T01:30:09.035Z,99.99
2022-09-21T01:31:10.086Z,99.99
2022-09-21T01:32:09.407Z,99.99
2022-09-21T01:33:09.625Z,99.99
2022-09-21T01:34:10.802Z,99.99
2022-09-21T01:35:09.949Z,99.99
2022-09-21T01:36:10.143Z,99.99
2022-09-21T01:37:10.338Z,99.99
2022-09-21T01:38:10.516Z,99.99
2022-09-21T01:39:10.686Z,99.99
2022-09-21T01:40:11.023Z,99.99
2022-09-21T01:41:10.997Z,99.99
2022-09-21T01:42:11.150Z,99.99
2022-09-21T01:43:11.555Z,99.99
2022-09-21T01:44:11.475Z,99.99
2022-09-21T01:45:11.600Z,99.99
2022-09-21T01:46:12.541Z,99.99
2022-09-21T01:47:12.541Z,99.99
2022-09-21T01:48:12.195Z,99.99
2022-09-21T01:49:12.327Z,99.99
2022-09-21T01:50:12.480Z,99.90
2022-09-21T01:51:12.625Z,99.58
2022-09-21T01:52:12.769Z,99.58
2022-09-21T01:53:12.951Z,99.99
2022-09-21T01:54:14.044Z,99.99
2022-09-21T01:55:13.271Z,99.99
2022-09-21T01:56:13.418Z,99.90
2022-09-21T01:57:13.563Z,99.99
2022-09-21T01:58:13.729Z,99.99
2022-09-21T01:59:13.863Z,99.99
2022-09-21T02:00:14.546Z,99.99
2022-09-21T02:01:14.188Z,99.99
2022-09-21T02:02:14.308Z,99.99
2022-09-21T02:03:14.486Z,99.99
2022-09-21T02:04:14.625Z,99.99
2022-09-21T02:05:14.761Z,99.99
2022-09-21T02:06:14.923Z,99.99
2022-09-21T02:07:15.065Z,99.99
2022-09-21T02:08:15.180Z,99.99
2022-09-21T02:09:15.409Z,99.99
2022-09-21T02:10:15.528Z,99.99
2022-09-21T02:11:15.670Z,99.99
2022-09-21T02:12:19.126Z,99.99
2022-09-21T02:13:16.915Z,99.99
2022-09-21T02:14:16.014Z,99.99
2022-09-21T02:15:16.159Z,99.99
2022-09-21T02:16:16.330Z,99.99
2022-09-21T02:17:17.047Z,99.99
2022-09-21T02:18:16.691Z,99.99
2022-09-21T02:19:17.546Z,99.99
2022-09-21T02:20:17.030Z,99.99
2022-09-21T02:21:17.184Z,99.99
2022-09-21T02:22:17.336Z,99.99
2022-09-21T02:23:18.076Z,99.99
2022-09-21T02:24:17.708Z,99.99
2022-09-21T02:25:17.852Z,99.99
2022-09-21T02:26:18.551Z,99.99
2022-09-21T02:27:18.172Z,99.99
2022-09-21T02:28:19.048Z,99.99
2022-09-21T02:29:18.537Z,99.99
2022-09-21T02:30:18.682Z,99.99
2022-09-21T02:31:18.857Z,99.99
2022-09-21T02:32:18.977Z,99.99
2022-09-21T02:33:19.104Z,99.99
2022-09-21T02:34:19.265Z,99.99
2022-09-21T02:35:19.395Z,99.99
2022-09-21T02:36:19.533Z,99.99
2022-09-21T02:37:19.674Z,99.99
2022-09-21T02:38:19.805Z,99.99
2022-09-21T02:39:20.550Z,99.99
2022-09-21T02:40:20.224Z,99.99
2022-09-21T02:41:20.297Z,99.99
2022-09-21T02:42:20.423Z,99.99
2022-09-21T02:43:21.536Z,99.99
2022-09-21T02:44:20.768Z,99.99
2022-09-21T02:45:20.985Z,99.99
2022-09-21T02:46:21.272Z,99.99
2022-09-21T02:47:21.413Z,99.99
2022-09-21T02:48:21.656Z,99.99
2022-09-21T02:49:21.885Z,99.99
2022-09-21T02:50:22.112Z,99.99
2022-09-21T02:51:22.374Z,99.99
2022-09-21T02:52:22.508Z,99.99
2022-09-21T02:53:23.558Z,99.99
2022-09-21T02:54:22.892Z,99.99
2022-09-21T02:55:24.055Z,99.99
2022-09-21T02:56:23.390Z,99.99
2022-09-21T02:57:23.504Z,99.99
2022-09-21T02:58:23.746Z,99.99
2022-09-21T02:59:23.849Z,99.99
2022-09-21T03:00:24.025Z,99.99
2022-09-21T03:01:24.199Z,99.99
2022-09-21T03:02:24.325Z,99.99
2022-09-21T03:03:24.457Z,99.99
2022-09-21T03:04:24.578Z,99.99
2022-09-21T03:05:24.740Z,99.99
2022-09-21T03:06:24.894Z,99.99
2022-09-21T03:07:25.039Z,99.99
2022-09-21T03:08:25.163Z,99.99
2022-09-21T03:09:25.302Z,99.99
2022-09-21T03:10:25.466Z,99.99
2022-09-21T03:11:25.588Z,99.99
2022-09-21T03:12:25.735Z,99.99
2022-09-21T03:13:25.857Z,99.99
2022-09-21T03:14:26.000Z,99.99
2022-09-21T03:15:26.116Z,99.99
2022-09-21T03:16:26.274Z,99.99
2022-09-21T03:17:26.397Z,99.99
2022-09-21T03:18:26.545Z,99.99
2022-09-21T03:19:26.692Z,99.99
2022-09-21T03:20:26.816Z,99.99
2022-09-21T03:21:26.973Z,99.99
2022-09-21T03:22:27.574Z,99.99
2022-09-21T03:23:27.332Z,99.99
2022-09-21T03:24:27.480Z,99.99
2022-09-21T03:25:28.075Z,99.99
2022-09-21T03:26:27.827Z,99.99
2022-09-21T03:27:28.975Z,99.99
2022-09-21T03:28:29.067Z,99.99
2022-09-21T03:29:29.067Z,99.99
2022-09-21T03:30:28.475Z,99.99
2022-09-21T03:31:28.690Z,99.99
2022-09-21T03:32:28.893Z,99.99
2022-09-21T03:33:29.040Z,99.99
2022-09-21T03:34:29.205Z,99.99
2022-09-21T03:35:29.371Z,99.99
2022-09-21T03:36:29.550Z,99.99
2022-09-21T03:37:29.683Z,99.99
2022-09-21T03:38:29.811Z,99.99
2022-09-21T03:39:29.944Z,99.99
2022-09-21T03:40:30.223Z,99.99
2022-09-21T03:41:31.062Z,99.99
2022-09-21T03:42:30.429Z,99.99
2022-09-21T03:43:30.596Z,99.99
2022-09-21T03:44:30.749Z,99.99
2022-09-21T03:45:30.893Z,99.99
2022-09-21T03:46:31.042Z,99.99
2022-09-21T03:47:31.258Z,99.99
2022-09-21T03:48:31.433Z,99.99
2022-09-21T03:49:31.581Z,99.99
2022-09-21T03:50:31.764Z,99.99
2022-09-21T03:51:31.934Z,99.99
2022-09-21T03:52:32.061Z,99.99
2022-09-21T03:53:32.205Z,99.99
2022-09-21T03:54:32.389Z,99.99
2022-09-21T03:55:32.517Z,99.99
2022-09-21T03:56:32.663Z,99.99
2022-09-21T03:57:32.796Z,99.99
2022-09-21T03:58:32.940Z,99.99
2022-09-21T03:59:33.099Z,99.99
2022-09-21T04:00:33.250Z,99.99
2022-09-21T04:01:33.641Z,99.99
2022-09-21T04:02:34.141Z,99.99
2022-09-21T04:03:33.703Z,99.99
2022-09-21T04:04:33.859Z,99.99
2022-09-21T04:05:34.569Z,99.99
2022-09-21T04:06:34.212Z,99.99
2022-09-21T04:07:34.350Z,99.99
2022-09-21T04:08:34.517Z,99.99
2022-09-21T04:09:34.687Z,99.99
2022-09-21T04:10:35.579Z,99.99
2022-09-21T04:11:35.100Z,99.99
2022-09-21T04:12:35.252Z,99.99
2022-09-21T04:13:35.416Z,99.99
2022-09-21T04:14:35.581Z,99.99
2022-09-21T04:15:35.727Z,99.99
2022-09-21T04:16:36.571Z,99.99
2022-09-21T04:17:36.090Z,99.99
2022-09-21T04:18:36.592Z,99.99
2022-09-21T04:19:37.073Z,99.99
2022-09-21T04:20:36.583Z,99.99
2022-09-21T04:21:36.794Z,99.99
2022-09-21T04:22:41.150Z,99.99
2022-09-21T04:23:39.087Z,99.99
2022-09-21T04:24:38.085Z,99.99
2022-09-21T04:25:37.308Z,99.99
2022-09-21T04:26:38.110Z,99.99
2022-09-21T04:27:37.746Z,99.99
2022-09-21T04:28:37.856Z,99.99
2022-09-21T04:29:37.974Z,99.99
2022-09-21T04:30:38.248Z,99.99
2022-09-21T04:31:38.266Z,99.99
2022-09-21T04:32:38.414Z,99.99
2022-09-21T04:33:38.536Z,99.99
2022-09-21T04:34:38.665Z,99.99
2022-09-21T04:35:38.815Z,99.99
2022-09-21T04:36:38.927Z,99.99
2022-09-21T04:37:39.072Z,99.99
2022-09-21T04:38:39.235Z,99.99
2022-09-21T04:39:40.077Z,99.99
2022-09-21T04:40:39.611Z,99.99
2022-09-21T04:41:40.087Z,99.99
2022-09-21T04:42:39.952Z,99.99
2022-09-21T04:43:40.064Z,99.99
2022-09-21T04:44:41.078Z,99.99
2022-09-21T04:45:40.301Z,99.99
2022-09-21T04:46:40.458Z,99.99
2022-09-21T04:47:40.590Z,99.99
2022-09-21T04:48:40.722Z,99.99
2022-09-21T04:49:41.089Z,99.99
2022-09-21T04:50:41.078Z,99.99
2022-09-21T04:51:42.107Z,99.99
2022-09-21T04:52:41.448Z,99.99
2022-09-21T04:53:42.083Z,99.99
2022-09-21T04:54:42.090Z,99.99
2022-09-21T04:55:41.935Z,99.99
2022-09-21T04:56:42.058Z,99.99
2022-09-21T04:57:42.181Z,99.99
2022-09-21T04:58:42.333Z,99.99
2022-09-21T04:59:42.490Z,99.99
2022-09-21T05:00:42.616Z,99.99
2022-09-21T05:01:43.616Z,99.99
2022-09-21T05:02:42.920Z,99.92
2022-09-21T05:03:43.074Z,99.87
2022-09-21T05:04:45.491Z,99.92
2022-09-21T05:05:44.393Z,99.99
2022-09-21T05:06:44.081Z,99.99
2022-09-21T05:07:43.726Z,99.99
2022-09-21T05:08:44.581Z,99.99
2022-09-21T05:09:44.082Z,99.99
2022-09-21T05:10:44.225Z,99.99
2022-09-21T05:11:45.081Z,99.71
2022-09-21T05:12:45.086Z,99.51
2022-09-21T05:13:45.590Z,99.92
2022-09-21T05:14:45.970Z,99.99
2022-09-21T05:15:45.225Z,99.99
2022-09-21T05:16:45.439Z,99.99
2022-09-21T05:17:46.588Z,99.99
2022-09-21T05:18:45.830Z,99.99
2022-09-21T05:19:46.587Z,99.99
2022-09-21T05:20:46.215Z,99.99
2022-09-21T05:21:46.401Z,99.99
2022-09-21T05:22:46.571Z,99.99
2022-09-21T05:23:47.099Z,99.99
2022-09-21T05:24:46.877Z,99.99
2022-09-21T05:25:47.030Z,99.99
2022-09-21T05:26:47.609Z,99.99
2022-09-21T05:27:47.370Z,99.99
2022-09-21T05:28:47.486Z,99.99
2022-09-21T05:29:47.656Z,99.99
2022-09-21T05:31:07.208Z,99.99
2022-09-21T05:31:50.020Z,99.99
2022-09-21T05:32:48.602Z,99.99
2022-09-21T05:33:48.270Z,99.99
2022-09-21T05:34:48.386Z,99.99
2022-09-21T05:35:49.091Z,99.99
2022-09-21T05:36:48.748Z,99.99
2022-09-21T05:37:49.588Z,99.99
2022-09-21T05:38:49.094Z,99.99
2022-09-21T05:39:49.602Z,99.99
2022-09-21T05:40:49.369Z,99.99
2022-09-21T05:41:49.505Z,99.99
2022-09-21T05:42:50.586Z,99.99
2022-09-21T05:43:49.844Z,99.99
2022-09-21T05:44:50.007Z,99.99
2022-09-21T05:45:51.116Z,99.99
2022-09-21T05:46:55.349Z,99.99
2022-09-21T05:47:52.511Z,99.99
2022-09-21T05:48:50.746Z,99.99
2022-09-21T05:49:51.046Z,99.99
2022-09-21T05:50:51.591Z,99.99
2022-09-21T05:51:51.228Z,99.99
2022-09-21T05:52:59.965Z,99.99
2022-09-21T05:53:51.575Z,99.99
2022-09-21T05:54:51.758Z,99.99
2022-09-21T05:55:51.924Z,99.99
2022-09-21T05:56:52.628Z,99.99
2022-09-21T05:57:53.158Z,99.99
2022-09-21T05:58:52.435Z,99.99
2022-09-21T05:59:52.597Z,99.07
2022-09-21T06:00:52.759Z,96.88
2022-09-21T06:01:52.927Z,94.27
2022-09-21T06:02:53.048Z,91.20
2022-09-21T06:03:53.180Z,89.03
2022-09-21T06:04:53.316Z,87.20
2022-09-21T06:05:53.460Z,85.42
2022-09-21T06:06:53.660Z,83.23
2022-09-21T06:07:53.800Z,82.48
2022-09-21T06:08:54.051Z,81.41
2022-09-21T06:09:54.184Z,80.76
2022-09-21T06:10:55.140Z,79.39
2022-09-21T06:11:54.527Z,78.64
2022-09-21T06:12:54.686Z,78.27
2022-09-21T06:13:54.878Z,77.51
2022-09-21T06:14:55.630Z,77.51
2022-09-21T06:15:55.147Z,77.79
2022-09-21T06:16:56.178Z,78.50
2022-09-21T06:17:56.129Z,78.47
2022-09-21T06:18:56.146Z,77.41
2022-09-21T06:19:55.773Z,75.95
2022-09-21T06:20:55.907Z,74.58
2022-09-21T06:21:56.067Z,74.04
2022-09-21T06:22:56.223Z,73.10
2022-09-21T06:23:56.383Z,73.57
2022-09-21T06:24:57.139Z,75.16
2022-09-21T06:25:58.678Z,76.63
2022-09-21T06:26:58.638Z,77.83
2022-09-21T06:27:57.109Z,79.33
2022-09-21T06:28:58.143Z,81.24
2022-09-21T06:29:57.404Z,82.62
2022-09-21T06:30:57.636Z,83.68
2022-09-21T06:31:58.635Z,84.64
2022-09-21T06:32:57.868Z,85.77
2022-09-21T06:33:58.009Z,85.56
2022-09-21T06:34:58.173Z,85.72
2022-09-21T06:35:58.326Z,85.48
2022-09-21T06:36:58.471Z,85.48
2022-09-21T06:37:59.137Z,84.48
2022-09-21T06:38:59.152Z,83.32
2022-09-21T06:39:58.948Z,82.12
2022-09-21T06:41:00.639Z,81.32
2022-09-21T06:41:59.360Z,78.56
2022-09-21T06:42:59.522Z,77.17
2022-09-21T06:43:59.704Z,75.84
2022-09-21T06:45:00.177Z,76.15
2022-09-21T06:46:00.148Z,76.65
2022-09-21T06:47:00.217Z,75.98
2022-09-21T06:48:00.365Z,77.55
2022-09-21T06:49:00.529Z,77.14
2022-09-21T06:50:00.714Z,77.34
2022-09-21T06:51:00.864Z,77.47
2022-09-21T06:52:00.988Z,75.70
2022-09-21T06:53:01.136Z,74.18
2022-09-21T06:54:01.297Z,70.93
2022-09-21T06:55:02.260Z,68.70
2022-09-21T06:56:01.664Z,66.58
2022-09-21T06:57:01.832Z,64.87
2022-09-21T06:58:02.647Z,63.96
2022-09-21T06:59:02.167Z,63.46
2022-09-21T07:00:02.304Z,63.23
2022-09-21T07:01:03.236Z,62.80
2022-09-21T07:02:02.615Z,61.79
2022-09-21T07:03:03.151Z,62.29
2022-09-21T07:04:03.163Z,62.46
2022-09-21T07:05:03.015Z,61.16
2022-09-21T07:06:03.660Z,60.72
2022-09-21T07:07:04.818Z,60.32
2022-09-21T07:08:04.724Z,59.89
2022-09-21T07:10:07.001Z,60.74
2022-09-21T07:11:05.061Z,60.27
2022-09-21T07:12:05.150Z,60.77
2022-09-21T07:13:04.400Z,60.29
2022-09-21T07:14:04.555Z,60.87
2022-09-21T07:15:04.729Z,60.24
2022-09-21T07:16:04.890Z,59.80
2022-09-21T07:17:05.026Z,59.60
2022-09-21T07:18:05.855Z,59.30
2022-09-21T07:19:38.730Z,58.87
2022-09-21T07:20:05.736Z,58.84
2022-09-21T07:21:05.668Z,58.54
2022-09-21T07:22:05.910Z,58.42
2022-09-21T07:23:05.949Z,58.22
2022-09-21T07:24:11.075Z,58.39
2022-09-21T07:25:09.206Z,58.09
2022-09-21T07:26:07.212Z,57.96
2022-09-21T07:27:07.193Z,57.13
2022-09-21T07:28:06.820Z,56.40
2022-09-21T07:29:07.094Z,56.20
2022-09-21T07:30:07.147Z,56.87
2022-09-21T07:31:07.320Z,56.30
2022-09-21T07:32:08.194Z,56.85
2022-09-21T07:33:07.694Z,55.82
2022-09-21T07:34:07.914Z,55.52
2022-09-21T07:35:08.027Z,55.29
2022-09-21T07:36:08.167Z,55.09
2022-09-21T07:37:08.310Z,55.12
2022-09-21T07:38:08.437Z,55.24
2022-09-21T07:39:08.587Z,55.05
2022-09-21T07:40:08.764Z,55.27
2022-09-21T07:41:09.207Z,55.94
2022-09-21T07:42:09.193Z,56.27
2022-09-21T07:43:10.212Z,56.80
2022-09-21T07:44:09.452Z,58.22
2022-09-21T07:45:09.590Z,60.24
2022-09-21T07:46:09.829Z,62.13
2022-09-21T07:47:10.706Z,63.03
2022-09-21T07:48:10.098Z,66.15
2022-09-21T07:49:10.727Z,66.99
2022-09-21T07:50:10.351Z,68.97
2022-09-21T07:51:10.521Z,70.36
2022-09-21T07:52:11.454Z,70.86
2022-09-21T07:53:10.864Z,71.30
2022-09-21T07:54:11.072Z,72.01
2022-09-21T07:55:11.228Z,71.80
2022-09-21T07:56:11.733Z,71.53
2022-09-21T07:57:11.502Z,71.84
2022-09-21T07:58:11.666Z,72.58
2022-09-21T07:59:11.847Z,73.33
2022-09-21T08:00:12.005Z,74.48
2022-09-21T08:01:12.750Z,74.78
2022-09-21T08:02:13.276Z,74.24
2022-09-21T08:03:12.728Z,72.41
2022-09-21T08:04:12.674Z,73.29
2022-09-21T08:05:12.856Z,74.62
2022-09-21T08:06:13.066Z,76.17
2022-09-21T08:07:13.275Z,76.88
2022-09-21T08:08:13.445Z,76.78
2022-09-21T08:09:13.720Z,76.28
2022-09-21T08:10:13.745Z,76.48
2022-09-21T08:11:14.715Z,77.09
2022-09-21T08:12:14.113Z,76.75
2022-09-21T08:13:15.208Z,76.14
2022-09-21T08:14:14.486Z,74.65
2022-09-21T08:15:37.096Z,74.51
2022-09-21T08:16:16.850Z,74.07
2022-09-21T08:17:15.016Z,72.58
2022-09-21T08:18:15.734Z,71.91
2022-09-21T08:19:15.376Z,70.32
2022-09-21T08:20:15.557Z,68.74
2022-09-21T08:21:15.703Z,67.26
2022-09-21T08:22:16.721Z,69.55
2022-09-21T08:23:16.111Z,67.07
2022-09-21T08:24:16.727Z,64.51
2022-09-21T08:25:16.472Z,64.38
2022-09-21T08:26:16.593Z,63.87
2022-09-21T08:27:16.721Z,64.07
2022-09-21T08:28:16.847Z,66.08
2022-09-21T08:29:17.115Z,67.86
2022-09-21T08:30:17.238Z,68.19
2022-09-21T08:31:17.396Z,68.70
2022-09-21T08:32:39.339Z,69.24
2022-09-21T08:33:20.718Z,70.52
2022-09-21T08:34:18.234Z,68.63
2022-09-21T08:35:18.106Z,69.07
2022-09-21T08:36:19.226Z,70.39
2022-09-21T08:37:18.437Z,68.33
2022-09-21T08:38:18.670Z,69.92
2022-09-21T08:39:19.244Z,68.67
2022-09-21T08:40:18.988Z,68.13
2022-09-21T08:41:19.101Z,69.07
2022-09-21T08:42:19.320Z,68.77
2022-09-21T08:43:21.239Z,68.90
2022-09-21T08:44:19.828Z,69.95
2022-09-21T08:45:20.231Z,69.07
2022-09-21T08:46:20.267Z,69.68
2022-09-21T08:47:20.332Z,70.18
2022-09-21T08:48:24.051Z,70.28
2022-09-21T08:49:22.684Z,69.84
2022-09-21T08:50:20.909Z,69.78
2022-09-21T08:51:21.029Z,67.55
2022-09-21T08:52:21.261Z,66.10
2022-09-21T08:53:21.382Z,64.67
2022-09-21T08:54:21.535Z,61.30
2022-09-21T08:55:21.692Z,64.16
2022-09-21T08:56:21.865Z,63.68
2022-09-21T08:57:22.030Z,64.42
2022-09-21T08:58:22.156Z,65.97
2022-09-21T08:59:22.285Z,64.28
2022-09-21T09:00:23.244Z,65.02
2022-09-21T09:01:22.696Z,64.82
2022-09-21T09:02:22.930Z,64.14
2022-09-21T09:03:23.740Z,65.25
2022-09-21T09:04:23.726Z,64.75
2022-09-21T09:05:23.345Z,65.66
2022-09-21T09:06:26.747Z,66.03
2022-09-21T09:07:24.796Z,65.32
2022-09-21T09:08:24.037Z,66.33
2022-09-21T09:09:24.157Z,66.10
2022-09-21T09:10:25.233Z,66.03
2022-09-21T09:11:24.484Z,66.81
2022-09-21T09:12:24.604Z,66.71
2022-09-21T09:13:24.879Z,65.29
2022-09-21T09:14:25.033Z,65.15
2022-09-21T09:15:25.208Z,65.11
2022-09-21T09:16:25.416Z,67.38
2022-09-21T09:17:25.563Z,68.12
2022-09-21T09:18:26.783Z,69.03
2022-09-21T09:19:26.253Z,69.23
2022-09-21T09:20:26.132Z,69.00
2022-09-21T09:21:31.290Z,67.10
2022-09-21T09:22:28.443Z,66.69
2022-09-21T09:23:26.680Z,67.94
2022-09-21T09:24:26.829Z,68.08
2022-09-21T09:25:26.982Z,69.84
2022-09-21T09:26:27.185Z,70.04
2022-09-21T09:27:27.320Z,69.94
2022-09-21T09:28:27.459Z,69.60
2022-09-21T09:29:27.638Z,70.11
2022-09-21T09:30:28.744Z,69.74
2022-09-21T09:31:28.095Z,68.39
2022-09-21T09:32:28.197Z,66.70
2022-09-21T09:33:28.355Z,67.05
2022-09-21T09:34:28.510Z,65.13
2022-09-21T09:35:28.673Z,63.75
2022-09-21T09:36:54.026Z,64.41
2022-09-21T09:37:30.971Z,64.72
2022-09-21T09:38:29.187Z,65.08
2022-09-21T09:39:29.374Z,66.74
2022-09-21T09:40:30.282Z,65.72
2022-09-21T09:41:29.693Z,66.23
2022-09-21T09:42:30.744Z,66.13
2022-09-21T09:43:29.978Z,66.53
2022-09-21T09:44:30.156Z,66.57
2022-09-21T09:45:30.297Z,65.29
2022-09-21T09:46:30.504Z,64.45
2022-09-21T09:47:30.682Z,63.73
2022-09-21T09:48:31.243Z,65.28
2022-09-21T09:49:31.007Z,67.55
2022-09-21T09:50:31.138Z,67.44
2022-09-21T09:51:31.301Z,66.74
2022-09-21T09:52:31.453Z,66.53
2022-09-21T09:53:31.606Z,66.30
2022-09-21T09:54:31.770Z,67.21
2022-09-21T09:55:31.961Z,65.31
2022-09-21T09:56:32.105Z,66.36
2022-09-21T09:57:33.249Z,66.16
2022-09-21T09:58:32.482Z,67.85
2022-09-21T09:59:33.247Z,66.33
2022-09-21T10:00:32.909Z,63.29
2022-09-21T10:01:33.076Z,64.70
2022-09-21T10:02:33.248Z,64.61
2022-09-21T10:03:33.371Z,64.81
2022-09-21T10:04:34.824Z,66.63
2022-09-21T10:05:34.255Z,65.01
2022-09-21T10:06:33.912Z,64.10
2022-09-21T10:07:34.037Z,64.20
2022-09-21T10:08:34.275Z,65.45
2022-09-21T10:09:34.474Z,66.20
2022-09-21T10:10:34.650Z,63.44
2022-09-21T10:11:34.796Z,61.41
2022-09-21T10:12:34.918Z,62.29
2022-09-21T10:13:35.064Z,63.06
2022-09-21T10:14:35.248Z,63.35
2022-09-21T10:15:35.395Z,63.76
2022-09-21T10:16:35.537Z,64.92
2022-09-21T10:17:35.674Z,64.07
2022-09-21T10:18:35.809Z,63.60
2022-09-21T10:19:35.969Z,63.12
2022-09-21T10:20:36.094Z,64.24
2022-09-21T10:21:36.754Z,64.07
2022-09-21T10:22:36.385Z,64.50
2022-09-21T10:23:36.539Z,64.53
2022-09-21T10:24:36.803Z,65.21
2022-09-21T10:25:40.076Z,66.83
2022-09-21T10:26:38.758Z,67.24
2022-09-21T10:27:37.367Z,65.65
2022-09-21T10:28:37.531Z,66.74
2022-09-21T10:29:38.261Z,65.04
2022-09-21T10:30:37.888Z,64.23
2022-09-21T10:31:38.088Z,65.04
2022-09-21T10:32:38.257Z,66.26
2022-09-21T10:33:38.778Z,64.43
2022-09-21T10:34:38.644Z,64.73
2022-09-21T10:35:39.264Z,64.91
2022-09-21T10:36:39.013Z,65.92
2022-09-21T10:37:39.270Z,62.68
2022-09-21T10:38:39.262Z,63.21
2022-09-21T10:39:40.427Z,64.10
2022-09-21T10:40:39.807Z,62.48
2022-09-21T10:41:39.849Z,61.25
2022-09-21T10:42:40.274Z,61.76
2022-09-21T10:43:43.631Z,60.93
2022-09-21T10:44:41.779Z,62.65
2022-09-21T10:45:41.266Z,62.65
2022-09-21T10:46:41.361Z,61.63
2022-09-21T10:47:40.880Z,62.54
2022-09-21T10:48:41.002Z,64.07
2022-09-21T10:49:41.275Z,63.46
2022-09-21T10:50:41.294Z,65.05
2022-09-21T10:51:41.426Z,64.44
2022-09-21T10:52:41.582Z,64.14
2022-09-21T10:53:41.687Z,64.41
2022-09-21T10:54:41.834Z,63.07
2022-09-21T10:55:52.737Z,62.56
2022-09-21T10:56:44.197Z,61.27
2022-09-21T10:57:42.385Z,62.08
2022-09-21T10:58:42.509Z,61.68
2022-09-21T10:59:42.801Z,62.79
2022-09-21T11:00:42.812Z,62.49
2022-09-21T11:01:42.982Z,61.10
2022-09-21T11:02:43.406Z,61.30
2022-09-21T11:03:43.772Z,61.91
2022-09-21T11:04:44.278Z,62.54
2022-09-21T11:05:43.672Z,63.73
2022-09-21T11:06:44.285Z,62.95
2022-09-21T11:07:44.041Z,61.74
2022-09-21T11:08:44.791Z,62.41
2022-09-21T11:09:45.272Z,64.61
2022-09-21T11:10:44.677Z,63.67
2022-09-21T11:11:44.821Z,62.60
2022-09-21T11:12:45.289Z,61.16
2022-09-21T11:13:45.783Z,61.99
2022-09-21T11:14:45.329Z,61.39
2022-09-21T11:15:46.345Z,59.56
2022-09-21T11:16:45.632Z,62.02
2022-09-21T11:17:45.855Z,62.81
2022-09-21T11:18:46.017Z,64.83
2022-09-21T11:19:46.197Z,64.90
2022-09-21T11:20:46.366Z,64.32
2022-09-21T11:21:46.525Z,62.26
2022-09-21T11:22:47.285Z,62.26
2022-09-21T11:23:46.887Z,64.38
2022-09-21T11:24:47.040Z,62.76
2022-09-21T11:25:47.795Z,63.81
2022-09-21T11:26:47.381Z,65.12
2022-09-21T11:27:47.791Z,65.53
2022-09-21T11:28:47.659Z,66.13
2022-09-21T11:29:47.794Z,67.14
2022-09-21T11:30:48.890Z,67.65
2022-09-21T11:31:48.778Z,66.84
2022-09-21T11:32:48.290Z,66.64
2022-09-21T11:33:48.408Z,67.18
2022-09-21T11:34:49.268Z,66.38
2022-09-21T11:35:49.839Z,65.64
2022-09-21T11:36:49.300Z,64.79
2022-09-21T11:37:49.273Z,64.33
2022-09-21T11:38:49.507Z,62.74
2022-09-21T11:39:50.284Z,63.42
2022-09-21T11:40:50.284Z,62.71
2022-09-21T11:41:50.015Z,62.28
2022-09-21T11:42:50.127Z,61.24
2022-09-21T11:43:51.292Z,61.37
2022-09-21T11:44:50.510Z,62.68
2022-09-21T11:45:50.888Z,63.42
2022-09-21T11:46:50.949Z,62.14
2022-09-21T11:47:51.057Z,62.54
2022-09-21T11:48:51.279Z,62.85
2022-09-21T11:49:59.032Z,63.65
2022-09-21T11:50:53.293Z,64.90
2022-09-21T11:51:54.786Z,64.46
2022-09-21T11:52:53.009Z,64.06
2022-09-21T11:53:52.207Z,63.45
2022-09-21T11:54:52.788Z,64.64
2022-09-21T11:55:53.323Z,62.44
2022-09-21T11:56:53.325Z,62.47
2022-09-21T11:57:54.991Z,61.99
2022-09-21T11:58:53.280Z,62.26
2022-09-21T11:59:54.285Z,63.30
2022-09-21T12:00:54.514Z,63.83
2022-09-21T12:01:53.820Z,64.21
2022-09-21T12:02:54.299Z,64.85
2022-09-21T12:03:54.072Z,65.05
2022-09-21T12:04:54.200Z,66.16
2022-09-21T12:05:55.295Z,65.25
2022-09-21T12:06:54.533Z,66.57
2022-09-21T12:07:54.694Z,67.41
2022-09-21T12:08:54.855Z,65.39
2022-09-21T12:09:55.000Z,65.28
2022-09-21T12:10:55.128Z,66.33
2022-09-21T12:11:55.793Z,65.28
2022-09-21T12:12:55.439Z,65.99
2022-09-21T12:13:55.603Z,65.48
2022-09-21T12:14:55.801Z,65.69
2022-09-21T12:15:55.942Z,64.98
2022-09-21T12:16:56.193Z,66.27
2022-09-21T12:17:56.267Z,66.10
2022-09-21T12:18:56.418Z,64.65
2022-09-21T12:19:56.589Z,64.35
2022-09-21T12:20:57.293Z,64.42
2022-09-21T12:21:56.906Z,61.32
2022-09-21T12:22:57.081Z,60.53
2022-09-21T12:23:57.247Z,61.04
2022-09-21T12:24:57.396Z,62.38
2022-09-21T12:25:57.542Z,62.49
2022-09-21T12:26:58.296Z,62.59
2022-09-21T12:27:57.965Z,61.47
2022-09-21T12:28:58.122Z,61.35
2022-09-21T12:29:58.299Z,60.23
2022-09-21T12:31:00.680Z,60.63
2022-09-21T12:31:59.601Z,60.63
2022-09-21T12:32:58.721Z,61.58
2022-09-21T12:33:59.807Z,62.18
2022-09-21T12:34:59.037Z,62.31
2022-09-21T12:35:59.244Z,62.21
2022-09-21T12:36:59.371Z,63.43
2022-09-21T12:38:00.520Z,62.85
2022-09-21T12:38:59.731Z,63.06
2022-09-21T12:40:00.809Z,63.76
2022-09-21T12:41:00.311Z,63.56
2022-09-21T12:42:00.173Z,64.04
2022-09-21T12:43:00.329Z,65.25
2022-09-21T12:44:00.461Z,65.62
2022-09-21T12:45:01.309Z,65.45
2022-09-21T12:46:00.874Z,65.53
2022-09-21T12:47:00.947Z,65.02
2022-09-21T12:48:01.070Z,65.29
2022-09-21T12:49:01.319Z,64.32
2022-09-21T12:50:02.307Z,63.99
2022-09-21T12:51:05.837Z,63.15
2022-09-21T12:52:03.309Z,62.62
2022-09-21T12:53:01.922Z,60.66
2022-09-21T12:54:02.092Z,60.64
2022-09-21T12:55:02.256Z,60.41
2022-09-21T12:56:04.511Z,59.47